createdAt,value
2023-04-28T00:01:04.223Z,6.70
2023-04-28T00:05:07.496Z,7.47
2023-04-28T00:09:10.999Z,4.87
2023-04-28T00:13:13.683Z,6.23
2023-04-28T00:17:18.532Z,6.23
2023-04-28T00:21:21.204Z,5.57
2023-04-28T00:25:24.041Z,6.93
2023-04-28T00:29:26.657Z,5.93
2023-04-28T00:33:31.747Z,6.07
2023-04-28T00:37:37.229Z,5.90
2023-04-28T00:41:39.870Z,6.43
2023-04-28T00:45:42.506Z,6.77
2023-04-28T00:49:47.563Z,7.90
2023-04-28T00:53:51.297Z,7.50
2023-04-28T00:57:56.402Z,8.30
2023-04-28T01:02:01.564Z,8.57
2023-04-28T01:06:06.789Z,8.47
2023-04-28T01:10:10.978Z,8.73
2023-04-28T01:14:13.941Z,8.10
2023-04-28T01:18:17.664Z,8.90
2023-04-28T01:22:22.091Z,8.43
2023-04-28T01:26:26.907Z,6.90
2023-04-28T01:30:29.689Z,6.80
2023-04-28T01:34:32.447Z,6.80
2023-04-28T01:38:35.131Z,8.07
2023-04-28T01:42:39.356Z,6.50
2023-04-28T01:46:42.710Z,6.23
2023-04-28T01:50:45.429Z,6.40
2023-04-28T01:54:48.181Z,6.33
2023-04-28T01:58:53.404Z,6.23
2023-04-28T02:02:56.500Z,7.07
2023-04-28T02:06:59.629Z,6.13
2023-04-28T02:11:03.939Z,6.97
2023-04-28T02:15:09.924Z,5.40
2023-04-28T02:19:12.642Z,6.53
2023-04-28T02:23:16.134Z,7.37
2023-04-28T02:27:19.133Z,6.30
2023-04-28T02:31:23.254Z,6.53
2023-04-28T02:35:27.036Z,6.53
2023-04-28T02:39:31.072Z,6.03
2023-04-28T02:43:34.720Z,8.67
2023-04-28T02:47:38.768Z,6.00
2023-04-28T02:51:41.437Z,6.60
2023-04-28T02:55:45.252Z,5.70
2023-04-28T02:59:47.964Z,5.70
2023-04-28T03:03:52.242Z,7.03
2023-04-28T03:07:55.271Z,7.13
2023-04-28T03:11:57.970Z,5.83
2023-04-28T03:16:01.033Z,6.37
2023-04-28T03:20:06.140Z,6.87
2023-04-28T03:24:09.017Z,6.63
2023-04-28T03:28:12.378Z,6.03
2023-04-28T03:32:16.198Z,6.30
2023-04-28T03:36:20.479Z,6.83
2023-04-28T03:40:23.433Z,7.53
2023-04-28T03:44:48.935Z,6.40
2023-04-28T03:48:51.676Z,7.80
2023-04-28T03:52:56.732Z,5.93
2023-04-28T03:57:00.778Z,6.43
2023-04-28T04:01:03.662Z,7.67
2023-04-28T04:05:07.100Z,7.07
2023-04-28T04:09:11.425Z,6.87
2023-04-28T04:13:14.254Z,7.20
2023-04-28T04:17:19.593Z,7.30
2023-04-28T04:21:23.632Z,9.40
2023-04-28T04:25:29.378Z,7.10
2023-04-28T04:29:32.366Z,6.83
2023-04-28T04:33:38.319Z,8.23
2023-04-28T04:37:42.575Z,6.77
2023-04-28T04:41:46.695Z,6.67
2023-04-28T04:46:18.483Z,6.27
2023-04-28T04:50:21.674Z,6.83
2023-04-28T04:54:24.434Z,7.17
2023-04-28T04:58:29.252Z,6.30
2023-04-28T05:02:52.952Z,7.63
2023-04-28T05:06:55.784Z,8.03
2023-04-28T05:10:58.928Z,9.10
2023-04-28T05:15:02.959Z,8.27
2023-04-28T05:19:07.627Z,9.03
2023-04-28T05:23:10.858Z,9.87
2023-04-28T05:27:13.585Z,7.87
2023-04-28T05:31:18.533Z,7.23
2023-04-28T05:35:21.494Z,8.00
2023-04-28T05:39:24.408Z,10.77
2023-04-28T05:43:30.602Z,7.20
2023-04-28T05:47:36.283Z,7.77
2023-04-28T05:51:39.544Z,10.73
2023-04-28T05:55:42.316Z,10.97
2023-04-28T05:59:45.765Z,9.90
2023-04-28T06:03:53.189Z,9.23
2023-04-28T06:07:57.306Z,10.23
2023-04-28T06:12:00.154Z,10.27
2023-04-28T06:16:03.399Z,10.13
2023-04-28T06:20:10.626Z,10.50
2023-04-28T06:24:14.941Z,10.60
2023-04-28T06:28:21.004Z,10.53
2023-04-28T06:32:26.817Z,10.30
2023-04-28T06:36:31.333Z,12.43
2023-04-28T06:40:34.324Z,10.37
2023-04-28T06:44:39.149Z,11.97
2023-04-28T06:48:41.908Z,10.30
2023-04-28T06:52:46.102Z,10.80
2023-04-28T06:56:48.824Z,9.43
2023-04-28T07:00:51.672Z,10.83
2023-04-28T07:04:55.356Z,11.67
2023-04-28T07:09:00.609Z,11.67
2023-04-28T07:13:03.274Z,10.83
2023-04-28T07:17:06.069Z,12.60
2023-04-28T07:21:08.878Z,10.57
2023-04-28T07:25:14.138Z,11.87
2023-04-28T07:29:16.922Z,14.53
2023-04-28T07:33:20.022Z,11.70
2023-04-28T07:37:23.126Z,11.70
2023-04-28T07:41:28.924Z,14.47
2023-04-28T07:45:31.662Z,13.80
2023-04-28T07:49:34.544Z,14.57
2023-04-28T07:53:37.682Z,13.80
2023-04-28T07:57:42.303Z,16.17
2023-04-28T08:01:45.095Z,13.73
2023-04-28T08:05:48.080Z,15.13
2023-04-28T08:09:52.649Z,17.33
2023-04-28T08:14:01.263Z,14.10
2023-04-28T08:18:04.547Z,15.33
2023-04-28T08:22:07.760Z,16.33
2023-04-28T08:26:10.844Z,18.13
2023-04-28T08:30:14.985Z,17.83
2023-04-28T08:34:17.973Z,18.20
2023-04-28T08:38:23.952Z,16.40
2023-04-28T08:42:29.921Z,17.33
2023-04-28T08:46:35.798Z,16.73
2023-04-28T08:50:41.517Z,18.13
2023-04-28T08:54:45.412Z,17.80
2023-04-28T08:58:48.170Z,17.83
2023-04-28T09:02:52.371Z,19.50
2023-04-28T09:06:55.087Z,17.10
2023-04-28T09:11:08.745Z,17.07
2023-04-28T09:15:11.967Z,16.60
2023-04-28T09:19:16.348Z,16.80
2023-04-28T09:23:20.935Z,16.37
2023-04-28T09:27:28.581Z,16.17
2023-04-28T09:31:32.323Z,17.07
2023-04-28T09:35:43.491Z,15.87
2023-04-28T09:39:46.442Z,14.73
2023-04-28T09:43:49.684Z,14.07
2023-04-28T09:47:53.632Z,15.20
2023-04-28T09:52:13.586Z,14.57
2023-04-28T09:56:20.955Z,15.83
2023-04-28T10:00:24.305Z,15.63
2023-04-28T10:04:31.655Z,14.60
2023-04-28T10:08:35.989Z,14.10
2023-04-28T10:12:39.074Z,14.73
2023-04-28T10:16:43.031Z,13.73
2023-04-28T10:20:48.255Z,14.17
2023-04-28T10:25:08.677Z,13.53
2023-04-28T10:29:11.835Z,14.93
2023-04-28T10:33:26.777Z,14.17
2023-04-28T10:38:05.014Z,15.30
2023-04-28T10:42:48.512Z,16.07
2023-04-28T10:47:01.869Z,14.87
2023-04-28T10:51:25.483Z,14.83
2023-04-28T10:55:37.138Z,16.43
2023-04-28T10:59:43.561Z,15.27
2023-04-28T11:03:51.541Z,16.00
2023-04-28T11:08:31.863Z,15.13
2023-04-28T11:12:34.572Z,15.53
2023-04-28T11:16:50.337Z,17.13
2023-04-28T11:20:58.210Z,17.00
2023-04-28T11:25:02.417Z,18.17
2023-04-28T11:29:05.878Z,19.40
2023-04-28T11:33:10.797Z,19.10
2023-04-28T11:37:16.837Z,19.83
2023-04-28T11:41:19.599Z,20.07
2023-04-28T11:45:22.657Z,25.73
2023-04-28T11:49:28.213Z,22.97
2023-04-28T11:53:42.362Z,23.70
2023-04-28T11:57:45.019Z,25.43
2023-04-28T12:01:51.743Z,24.43
2023-04-28T12:05:56.076Z,23.70
2023-04-28T12:10:17.577Z,24.10
2023-04-28T12:14:21.046Z,24.37
2023-04-28T12:18:23.840Z,25.70
2023-04-28T12:22:28.860Z,26.97
2023-04-28T12:26:31.610Z,25.90
2023-04-28T12:30:35.808Z,26.13
2023-04-28T12:34:39.720Z,28.97
2023-04-28T12:38:50.235Z,30.27
2023-04-28T12:42:52.982Z,30.37
2023-04-28T12:46:56.060Z,35.53
2023-04-28T12:50:58.656Z,38.07
2023-04-28T12:55:03.141Z,42.90
2023-04-28T12:59:06.017Z,41.77
2023-04-28T13:03:08.994Z,43.20
2023-04-28T13:07:11.995Z,38.97
2023-04-28T13:11:22.821Z,38.90
2023-04-28T13:15:26.016Z,42.23
2023-04-28T13:19:29.950Z,39.60
2023-04-28T13:23:32.721Z,34.03
2023-04-28T13:27:37.789Z,30.63
2023-04-28T13:31:41.119Z,29.87
2023-04-28T13:35:44.366Z,28.90
2023-04-28T13:39:47.187Z,28.60
2023-04-28T13:43:51.204Z,29.10
2023-04-28T13:47:55.645Z,25.23
2023-04-28T13:51:58.458Z,26.53
2023-04-28T13:56:01.793Z,24.00
2023-04-28T14:00:07.492Z,24.87
2023-04-28T14:04:10.450Z,23.47
2023-04-28T14:08:13.790Z,20.87
2023-04-28T14:12:16.483Z,23.07
2023-04-28T14:16:20.790Z,20.53
2023-04-28T14:20:23.542Z,14.77
2023-04-28T14:24:26.450Z,18.07
2023-04-28T14:28:29.299Z,16.00
2023-04-28T14:32:33.527Z,17.00
2023-04-28T14:36:38.320Z,13.93
2023-04-28T14:40:42.815Z,14.90
2023-04-28T14:44:46.286Z,13.33
2023-04-28T14:48:51.021Z,15.10
2023-04-28T14:52:53.737Z,13.87
2023-04-28T14:56:56.367Z,16.37
2023-04-28T15:00:59.634Z,13.83
2023-04-28T15:05:03.773Z,13.50
2023-04-28T15:09:06.538Z,12.80
2023-04-28T15:13:09.164Z,11.77
2023-04-28T15:17:12.305Z,13.63
2023-04-28T15:21:16.355Z,14.20
2023-04-28T15:25:19.002Z,11.90
2023-04-28T15:29:22.662Z,11.00
2023-04-28T15:33:25.476Z,11.00
2023-04-28T15:37:42.826Z,9.87
2023-04-28T15:41:46.097Z,9.30
2023-04-28T15:45:48.910Z,9.60
2023-04-28T15:49:51.858Z,8.80
2023-04-28T15:53:56.974Z,9.47
2023-04-28T15:57:59.656Z,9.87
2023-04-28T16:02:04.482Z,9.33
2023-04-28T16:06:08.169Z,8.83
2023-04-28T16:10:14.879Z,8.93
2023-04-28T16:14:17.610Z,8.57
2023-04-28T16:18:20.329Z,6.97
2023-04-28T16:22:23.151Z,10.30
2023-04-28T16:26:27.188Z,8.43
2023-04-28T16:30:29.931Z,8.53
2023-04-28T16:34:32.989Z,6.57
2023-04-28T16:38:35.854Z,9.07
2023-04-28T16:42:40.130Z,7.10
2023-04-28T16:46:42.862Z,7.23
2023-04-28T16:50:45.809Z,6.57
2023-04-28T16:54:48.440Z,6.00
2023-04-28T16:58:52.349Z,6.60
2023-04-28T17:02:55.203Z,8.10
2023-04-28T17:06:58.109Z,8.20
2023-04-28T17:11:01.964Z,7.27
2023-04-28T17:15:07.422Z,7.13
2023-04-28T17:19:11.232Z,7.83
2023-04-28T17:23:13.996Z,7.63
2023-04-28T17:27:16.705Z,7.90
2023-04-28T17:31:21.508Z,9.07
2023-04-28T17:35:24.464Z,9.20
2023-04-28T17:39:29.502Z,9.07
2023-04-28T17:43:32.629Z,8.67
2023-04-28T17:47:37.042Z,9.43
2023-04-28T17:51:39.710Z,9.43
2023-04-28T17:55:42.527Z,9.97
2023-04-28T17:59:46.993Z,10.87
2023-04-28T18:03:51.728Z,10.93
2023-04-28T18:07:54.425Z,10.93
2023-04-28T18:11:57.156Z,11.67
2023-04-28T18:15:59.924Z,14.13
2023-04-28T18:20:06.245Z,11.57
2023-04-28T18:24:08.949Z,11.17
2023-04-28T18:28:11.627Z,10.57
2023-04-28T18:32:15.121Z,12.10
2023-04-28T18:36:19.299Z,10.63
2023-04-28T18:40:22.168Z,11.10
2023-04-28T18:44:24.949Z,13.23
2023-04-28T18:48:28.741Z,11.47
2023-04-28T18:52:33.134Z,12.87
2023-04-28T18:56:36.123Z,12.63
2023-04-28T19:00:39.074Z,13.37
2023-04-28T19:04:42.381Z,14.43
2023-04-28T19:08:46.359Z,14.60
2023-04-28T19:12:49.079Z,17.90
2023-04-28T19:16:51.921Z,15.97
2023-04-28T19:21:00.602Z,17.77
2023-04-28T19:25:06.731Z,15.43
2023-04-28T19:29:09.490Z,16.70
2023-04-28T19:33:12.226Z,19.07
2023-04-28T19:37:15.016Z,17.20
2023-04-28T19:41:20.812Z,18.50
2023-04-28T19:45:24.541Z,18.70
2023-04-28T19:49:27.553Z,16.00
2023-04-28T19:53:30.681Z,17.40
2023-04-28T19:57:34.938Z,15.70
2023-04-28T20:01:41.617Z,15.37
2023-04-28T20:05:44.467Z,18.73
2023-04-28T20:09:47.144Z,15.03
2023-04-28T20:13:51.170Z,17.87
2023-04-28T20:17:54.045Z,17.27
2023-04-28T20:21:56.755Z,18.87
2023-04-28T20:26:00.128Z,16.47
2023-04-28T20:30:04.744Z,19.40
2023-04-28T20:34:07.662Z,18.83
2023-04-28T20:38:10.376Z,22.17
2023-04-28T20:42:13.808Z,20.37
2023-04-28T20:46:18.661Z,21.23
2023-04-28T20:50:21.386Z,18.30
2023-04-28T20:54:24.128Z,20.87
2023-04-28T20:58:27.883Z,24.10
2023-04-28T21:02:32.017Z,20.47
2023-04-28T21:06:35.055Z,20.93
2023-04-28T21:10:37.757Z,24.73
2023-04-28T21:14:40.542Z,24.47
2023-04-28T21:18:45.686Z,25.20
2023-04-28T21:22:48.430Z,24.97
2023-04-28T21:26:51.190Z,25.20
2023-04-28T21:30:53.881Z,27.90
2023-04-28T21:34:57.820Z,30.67
2023-04-28T21:39:00.599Z,29.40
2023-04-28T21:43:05.819Z,28.93
2023-04-28T21:47:08.857Z,33.07
2023-04-28T21:51:12.896Z,34.90
2023-04-28T21:55:15.650Z,32.03
2023-04-28T21:59:18.875Z,32.90
2023-04-28T22:03:22.037Z,31.90
2023-04-28T22:07:28.302Z,40.33
2023-04-28T22:11:31.125Z,46.73
2023-04-28T22:15:34.194Z,46.30
2023-04-28T22:19:36.821Z,52.60
2023-04-28T22:23:41.214Z,55.23
2023-04-28T22:27:43.895Z,60.53
2023-04-28T22:31:46.622Z,60.17
2023-04-28T22:35:49.375Z,59.27
2023-04-28T22:39:53.526Z,63.17
2023-04-28T22:43:56.431Z,57.77
2023-04-28T22:47:59.333Z,59.93
2023-04-28T22:52:02.109Z,60.57
2023-04-28T22:56:06.611Z,59.90
2023-04-28T23:00:10.391Z,66.03
2023-04-28T23:04:13.555Z,62.80
2023-04-28T23:08:16.427Z,60.90
2023-04-28T23:12:21.221Z,64.43
2023-04-28T23:16:23.910Z,62.40
2023-04-28T23:20:26.640Z,61.23
2023-04-28T23:24:29.368Z,46.57
2023-04-28T23:28:33.382Z,50.40
2023-04-28T23:32:36.140Z,46.90
2023-04-28T23:36:38.830Z,45.10
2023-04-28T23:40:42.102Z,43.20
2023-04-28T23:44:46.070Z,44.80
2023-04-28T23:48:48.714Z,38.63
2023-04-28T23:52:51.422Z,44.90
2023-04-28T23:56:54.054Z,51.07
